Time,TemperatureF,DewpointF,PressureIn,WindDirection,WindDirectionDegrees,WindSpeedMPH,WindSpeedGustMPH,Humidity,HourlyPrecipIn,Conditions,Clouds,dailyrainin,SoftwareType,DateUTC
2013-04-10 00:00:00,53.1,40.0,17.72,SSE,162,0.0,0.0,61,0.00,,---,0.00,VWS V14.00,2013-04-10 07:00:00,
2013-04-10 00:02:00,53.1,40.0,17.72,ESE,114,0.0,0.0,61,0.00,,---,0.00,VWS V14.00,2013-04-10 07:02:00,
2013-04-10 00:07:00,53.1,40.0,17.72,South,187,0.0,0.0,61,0.00,,---,0.00,VWS V14.00,2013-04-10 07:07:00,
2013-04-10 00:12:00,53.1,40.0,17.72,SSE,147,0.0,0.0,61,0.00,,---,0.00,VWS V14.00,2013-04-10 07:12:00,
2013-04-10 00:17:00,53.1,40.0,17.72,SSE,155,0.0,0.0,61,0.00,,---,0.00,VWS V14.00,2013-04-10 07:17:00,
2013-04-10 00:20:00,53.1,40.0,17.72,South,176,0.0,0.0,61,0.00,,---,0.00,VWS V14.00,2013-04-10 07:20:00,
2013-04-10 00:22:00,53.1,40.0,17.72,SSE,155,0.0,0.0,61,0.00,,---,0.00,VWS V14.00,2013-04-10 07:22:00,
2013-04-10 00:27:00,53.1,40.0,17.72,South,181,0.0,0.0,61,0.00,,---,0.00,VWS V14.00,2013-04-10 07:27:00,
2013-04-10 00:32:00,53.1,40.4,17.72,East,97,0.0,0.0,62,0.00,,---,0.00,VWS V14.00,2013-04-10 07:32:00,
2013-04-10 00:37:00,53.1,40.4,17.72,ESE,104,0.0,0.0,62,0.00,,---,0.00,VWS V14.00,2013-04-10 07:37:00,
2013-04-10 00:40:00,53.1,40.4,17.72,SSE,168,0.0,0.0,62,0.00,,---,0.00,VWS V14.00,2013-04-10 07:40:00,
2013-04-10 00:42:00,52.9,40.6,17.72,SE,133,0.0,0.0,63,0.00,,---,0.00,VWS V14.00,2013-04-10 07:42:00,
2013-04-10 00:47:00,52.7,39.6,17.72,SW,234,0.0,0.0,61,0.00,,---,0.00,VWS V14.00,2013-04-10 07:47:00,
2013-04-10 00:52:00,52.7,39.6,17.72,SSW,213,0.0,0.0,61,0.00,,---,0.00,VWS V14.00,2013-04-10 07:52:00,
2013-04-10 00:57:00,52.7,39.6,17.72,East,100,0.0,0.0,61,0.00,,---,0.00,VWS V14.00,2013-04-10 07:57:00,
2013-04-10 01:00:00,52.7,40.1,17.72,ESE,121,0.0,0.0,62,0.00,,---,0.00,VWS V14.00,2013-04-10 08:00:00,
2013-04-10 01:02:00,52.7,39.6,17.72,ENE,57,0.0,0.0,61,0.00,,---,0.00,VWS V14.00,2013-04-10 08:02:00,
2013-04-10 01:07:00,52.5,39.9,17.72,ESE,117,0.0,0.0,62,0.00,,---,0.00,VWS V14.00,2013-04-10 08:07:00,
2013-04-10 01:12:00,52.3,39.7,17.72,ESE,105,0.0,0.0,62,0.00,,---,0.00,VWS V14.00,2013-04-10 08:12:00,
2013-04-10 01:17:00,52.3,40.1,17.72,SE,125,0.0,0.0,63,0.00,,---,0.00,VWS V14.00,2013-04-10 08:17:00,
2013-04-10 01:20:00,52.3,40.1,17.72,ESE,105,0.0,0.0,63,0.00,,---,0.00,VWS V14.00,2013-04-10 08:20:00,
2013-04-10 01:22:00,52.3,40.1,17.72,SE,144,0.0,0.0,63,0.00,,---,0.00,VWS V14.00,2013-04-10 08:22:00,
2013-04-10 01:27:00,52.3,39.3,17.72,ESE,122,0.0,0.0,61,0.00,,---,0.00,VWS V14.00,2013-04-10 08:27:00,
2013-04-10 01:33:00,52.3,39.3,17.72,ESE,109,0.0,0.0,61,0.00,,---,0.00,VWS V14.00,2013-04-10 08:33:00,
2013-04-10 01:38:00,52.3,39.7,17.72,ESE,113,0.0,0.0,62,0.00,,---,0.00,VWS V14.00,2013-04-10 08:38:00,
2013-04-10 01:40:00,52.3,39.7,17.72,West,260,0.0,0.0,62,0.00,,---,0.00,VWS V14.00,2013-04-10 08:40:00,
2013-04-10 01:43:00,52.3,40.1,17.72,SSE,161,0.0,0.0,63,0.00,,---,0.00,VWS V14.00,2013-04-10 08:43:00,
2013-04-10 01:48:00,52.3,40.1,17.72,SE,144,0.0,0.0,63,0.00,,---,0.00,VWS V14.00,2013-04-10 08:48:00,
2013-04-10 01:53:00,52.3,39.3,17.72,SSW,195,0.0,0.0,61,0.00,,---,0.00,VWS V14.00,2013-04-10 08:53:00,
2013-04-10 01:58:00,52.3,40.1,17.72,SE,127,0.0,0.0,63,0.00,,---,0.00,VWS V14.00,2013-04-10 08:58:00,
2013-04-10 02:00:00,52.2,39.5,17.72,South,177,0.0,0.0,62,0.00,,---,0.00,VWS V14.00,2013-04-10 09:00:00,
2013-04-10 02:03:00,52.3,40.1,17.72,ESE,119,0.0,0.0,63,0.00,,---,0.00,VWS V14.00,2013-04-10 09:03:00,
2013-04-10 02:08:00,52.2,39.5,17.72,ESE,102,0.0,0.0,62,0.00,,---,0.00,VWS V14.00,2013-04-10 09:08:00,
2013-04-10 02:13:00,52.2,39.1,17.72,East,87,0.0,0.0,61,0.00,,---,0.00,VWS V14.00,2013-04-10 09:13:00,
2013-04-10 02:18:00,52.2,38.3,17.72,ESE,118,0.0,0.0,59,0.00,,---,0.00,VWS V14.00,2013-04-10 09:18:00,
2013-04-10 02:20:00,52.0,38.1,17.72,WSW,246,0.0,0.0,59,0.00,,---,0.00,VWS V14.00,2013-04-10 09:20:00,
2013-04-10 02:23:00,52.2,38.3,17.72,West,265,0.0,0.0,59,0.00,,---,0.00,VWS V14.00,2013-04-10 09:23:00,
2013-04-10 02:28:00,52.2,37.8,17.72,WSW,251,0.0,0.0,58,0.00,,---,0.00,VWS V14.00,2013-04-10 09:28:00,
2013-04-10 02:33:00,52.2,38.3,17.72,SE,132,0.0,0.0,59,0.00,,---,0.00,VWS V14.00,2013-04-10 09:33:00,
2013-04-10 02:38:00,52.3,38.0,17.72,ESE,104,0.0,0.0,58,0.00,,---,0.00,VWS V14.00,2013-04-10 09:38:00,
2013-04-10 02:40:00,52.3,38.0,17.72,ESE,111,0.0,0.0,58,0.00,,---,0.00,VWS V14.00,2013-04-10 09:40:00,
2013-04-10 02:43:00,52.3,38.0,17.72,ESE,109,0.0,0.0,58,0.00,,---,0.00,VWS V14.00,2013-04-10 09:43:00,
2013-04-10 02:48:00,52.3,38.5,17.72,ESE,114,0.0,0.0,59,0.00,,---,0.00,VWS V14.00,2013-04-10 09:48:00,
2013-04-10 02:53:00,52.3,38.0,17.72,SE,132,0.0,0.0,58,0.00,,---,0.00,VWS V14.00,2013-04-10 09:53:00,
2013-04-10 02:58:00,52.3,38.5,17.72,ESE,115,0.0,0.0,59,0.00,,---,0.00,VWS V14.00,2013-04-10 09:58:00,
2013-04-10 03:00:00,52.3,38.5,17.72,SE,129,0.0,0.0,59,0.00,,---,0.00,VWS V14.00,2013-04-10 10:00:00,
2013-04-10 03:03:00,52.5,39.0,17.72,South,171,0.0,0.0,60,0.00,,---,0.00,VWS V14.00,2013-04-10 10:03:00,
2013-04-10 03:08:00,52.3,37.6,17.72,East,94,0.0,0.0,57,0.00,,---,0.00,VWS V14.00,2013-04-10 10:08:00,
2013-04-10 03:13:00,52.3,38.0,17.72,SSE,157,0.0,0.0,58,0.00,,---,0.00,VWS V14.00,2013-04-10 10:13:00,
2013-04-10 03:18:00,52.3,37.6,17.72,SW,222,0.0,0.0,57,0.00,,---,0.00,VWS V14.00,2013-04-10 10:18:00,
2013-04-10 03:20:00,52.3,37.6,17.72,SSW,192,0.0,0.0,57,0.00,,---,0.00,VWS V14.00,2013-04-10 10:20:00,
2013-04-10 03:23:00,52.3,37.6,17.72,NE,49,0.0,0.0,57,0.00,,---,0.00,VWS V14.00,2013-04-10 10:23:00,
2013-04-10 03:28:00,52.3,37.1,17.72,SSW,194,0.0,0.0,56,0.00,,---,0.00,VWS V14.00,2013-04-10 10:28:00,
2013-04-10 03:33:00,52.3,37.6,17.72,West,262,0.0,0.0,57,0.00,,---,0.00,VWS V14.00,2013-04-10 10:33:00,
2013-04-10 03:38:00,52.3,38.0,17.72,SE,139,0.0,0.0,58,0.00,,---,0.00,VWS V14.00,2013-04-10 10:38:00,
2013-04-10 03:40:00,52.3,37.6,17.72,SSE,161,0.0,0.0,57,0.00,,---,0.00,VWS V14.00,2013-04-10 10:40:00,
2013-04-10 03:43:00,52.2,37.8,17.72,SE,134,0.0,0.0,58,0.00,,---,0.00,VWS V14.00,2013-04-10 10:43:00,
2013-04-10 03:48:00,52.2,37.4,17.72,South,169,0.0,0.0,57,0.00,,---,0.00,VWS V14.00,2013-04-10 10:48:00,
2013-04-10 03:53:00,52.2,37.4,17.72,SSE,161,0.0,0.0,57,0.00,,---,0.00,VWS V14.00,2013-04-10 10:53:00,
2013-04-10 03:58:00,52.2,37.4,17.72,South,188,0.0,0.0,57,0.00,,---,0.00,VWS V14.00,2013-04-10 10:58:00,
2013-04-10 04:00:00,52.2,37.8,17.72,East,85,0.0,0.0,58,0.00,,---,0.00,VWS V14.00,2013-04-10 11:00:00,
2013-04-10 04:03:00,52.2,37.8,17.72,SW,232,0.0,0.0,58,0.00,,---,0.00,VWS V14.00,2013-04-10 11:03:00,
2013-04-10 04:08:00,52.2,37.8,17.72,South,169,0.0,0.0,58,0.00,,---,0.00,VWS V14.00,2013-04-10 11:08:00,
2013-04-10 04:13:00,52.2,37.8,17.72,ESE,122,0.0,0.0,58,0.00,,---,0.00,VWS V14.00,2013-04-10 11:13:00,
2013-04-10 04:18:00,52.2,37.4,17.72,East,86,0.0,0.0,57,0.00,,---,0.00,VWS V14.00,2013-04-10 11:18:00,
2013-04-10 04:20:00,52.2,37.8,17.72,SW,233,0.0,0.0,58,0.00,,---,0.00,VWS V14.00,2013-04-10 11:20:00,
2013-04-10 04:23:00,52.2,37.4,17.72,South,179,0.0,0.0,57,0.00,,---,0.00,VWS V14.00,2013-04-10 11:23:00,
2013-04-10 04:28:00,52.2,37.8,17.72,SE,144,0.0,0.0,58,0.00,,---,0.00,VWS V14.00,2013-04-10 11:28:00,
2013-04-10 04:33:00,52.2,37.8,17.72,ENE,57,0.0,0.0,58,0.00,,---,0.00,VWS V14.00,2013-04-10 11:33:00,
2013-04-10 04:38:00,52.0,37.7,17.72,ESE,102,0.0,0.0,58,0.00,,---,0.00,VWS V14.00,2013-04-10 11:38:00,
2013-04-10 04:40:00,52.0,37.7,17.72,SE,135,0.0,0.0,58,0.00,,---,0.00,VWS V14.00,2013-04-10 11:40:00,
2013-04-10 04:43:00,52.0,37.2,17.72,East,86,0.0,0.0,57,0.00,,---,0.00,VWS V14.00,2013-04-10 11:43:00,
2013-04-10 04:48:00,52.0,37.7,17.72,East,95,0.0,0.0,58,0.00,,---,0.00,VWS V14.00,2013-04-10 11:48:00,
2013-04-10 04:53:00,52.0,37.7,17.72,SSW,206,0.0,0.0,58,0.00,,---,0.00,VWS V14.00,2013-04-10 11:53:00,
2013-04-10 04:58:00,52.0,37.7,17.72,ENE,76,0.0,0.0,58,0.00,,---,0.00,VWS V14.00,2013-04-10 11:58:00,
2013-04-10 05:00:00,52.0,37.7,17.72,ESE,112,0.0,0.0,58,0.00,,---,0.00,VWS V14.00,2013-04-10 12:00:00,
2013-04-10 05:03:00,52.0,38.1,17.72,SE,145,0.0,0.0,59,0.00,,---,0.00,VWS V14.00,2013-04-10 12:03:00,
2013-04-10 05:08:00,51.8,38.4,17.72,SE,125,0.0,0.0,60,0.00,,---,0.00,VWS V14.00,2013-04-10 12:08:00,
2013-04-10 05:13:00,52.0,39.0,17.72,East,95,0.0,0.0,61,0.00,,---,0.00,VWS V14.00,2013-04-10 12:13:00,
2013-04-10 05:19:00,52.0,39.4,17.72,SE,129,0.0,0.0,62,0.00,,---,0.00,VWS V14.00,2013-04-10 12:19:00,
2013-04-10 05:20:00,52.0,39.4,17.72,ESE,108,0.0,0.0,62,0.00,,---,0.00,VWS V14.00,2013-04-10 12:20:00,
2013-04-10 05:24:00,52.0,39.8,17.72,SSE,168,0.0,0.0,63,0.00,,---,0.00,VWS V14.00,2013-04-10 12:24:00,
2013-04-10 05:29:00,52.0,39.8,17.72,NE,47,0.0,0.0,63,0.00,,---,0.00,VWS V14.00,2013-04-10 12:29:00,
2013-04-10 05:34:00,52.0,40.2,17.72,ESE,117,0.0,0.0,64,0.00,,---,0.00,VWS V14.00,2013-04-10 12:34:00,
2013-04-10 05:39:00,51.8,40.0,17.72,ESE,115,0.0,0.0,64,0.00,,---,0.00,VWS V14.00,2013-04-10 12:39:00,
2013-04-10 05:40:00,52.0,40.2,17.72,ESE,118,0.0,0.0,64,0.00,,---,0.00,VWS V14.00,2013-04-10 12:40:00,
2013-04-10 05:44:00,52.0,41.0,17.72,ESE,109,0.0,0.0,66,0.00,,---,0.00,VWS V14.00,2013-04-10 12:44:00,
2013-04-10 05:49:00,52.0,41.0,17.72,SSE,159,0.0,0.0,66,0.00,,---,0.00,VWS V14.00,2013-04-10 12:49:00,
2013-04-10 05:54:00,51.8,40.8,17.72,SSE,164,0.0,0.0,66,0.00,,---,0.00,VWS V14.00,2013-04-10 12:54:00,
2013-04-10 05:58:00,52.0,41.0,17.72,SSE,148,0.0,0.0,66,0.00,,---,0.00,VWS V14.00,2013-04-10 12:58:00,
2013-04-10 06:00:00,52.0,41.0,17.72,SE,136,0.0,0.0,66,0.00,,---,0.00,VWS V14.00,2013-04-10 13:00:00,
2013-04-10 06:04:00,52.0,41.0,17.72,SSW,197,0.0,0.0,66,0.00,,---,0.00,VWS V14.00,2013-04-10 13:04:00,
2013-04-10 06:09:00,52.2,41.2,17.72,SSW,208,0.0,0.0,66,0.00,,---,0.00,VWS V14.00,2013-04-10 13:09:00,
2013-04-10 06:14:00,52.3,41.3,17.72,South,177,0.0,0.0,66,0.00,,---,0.00,VWS V14.00,2013-04-10 13:14:00,
2013-04-10 06:19:00,52.3,41.7,17.72,ESE,118,0.0,0.0,67,0.00,,---,0.00,VWS V14.00,2013-04-10 13:19:00,
2013-04-10 06:20:00,52.3,42.1,17.72,SE,136,0.0,0.0,68,0.00,,---,0.00,VWS V14.00,2013-04-10 13:20:00,
2013-04-10 06:24:00,52.2,41.9,17.72,SSW,201,0.0,0.0,68,0.00,,---,0.00,VWS V14.00,2013-04-10 13:24:00,
2013-04-10 06:29:00,52.2,42.3,17.72,North,353,0.0,0.0,69,0.00,,---,0.00,VWS V14.00,2013-04-10 13:29:00,
2013-04-10 06:34:00,52.2,42.7,17.72,ESE,105,0.0,0.0,70,0.00,,---,0.00,VWS V14.00,2013-04-10 13:34:00,
2013-04-10 06:39:00,52.2,43.1,17.72,SSW,211,0.0,0.0,71,0.00,,---,0.00,VWS V14.00,2013-04-10 13:39:00,
2013-04-10 06:40:00,52.2,43.4,17.72,ENE,76,0.0,0.0,72,0.00,,---,0.00,VWS V14.00,2013-04-10 13:40:00,
2013-04-10 06:44:00,52.0,43.2,17.72,SSW,210,0.0,0.0,72,0.00,,---,0.00,VWS V14.00,2013-04-10 13:44:00,
2013-04-10 06:49:00,52.0,43.6,17.72,South,190,0.0,0.0,73,0.00,,---,0.00,VWS V14.00,2013-04-10 13:49:00,
2013-04-10 06:54:00,52.0,43.6,17.72,NNE,15,0.0,0.0,73,0.00,,---,0.00,VWS V14.00,2013-04-10 13:54:00,
2013-04-10 06:59:00,52.0,44.0,17.72,ENE,78,0.0,0.0,74,0.00,,---,0.00,VWS V14.00,2013-04-10 13:59:00,
2013-04-10 07:00:00,52.0,44.0,17.72,SSW,200,0.0,0.0,74,0.00,,---,0.00,VWS V14.00,2013-04-10 14:00:00,
2013-04-10 07:04:00,52.0,44.0,17.72,SSE,166,0.0,0.0,74,0.00,,---,0.00,VWS V14.00,2013-04-10 14:04:00,
2013-04-10 07:09:00,52.0,44.3,17.72,ENE,69,0.0,0.0,75,0.00,,---,0.00,VWS V14.00,2013-04-10 14:09:00,
2013-04-10 07:14:00,52.0,44.3,17.72,SW,230,0.0,0.0,75,0.00,,---,0.00,VWS V14.00,2013-04-10 14:14:00,
2013-04-10 07:19:00,52.2,44.8,17.72,SW,231,0.0,0.0,76,0.00,,---,0.00,VWS V14.00,2013-04-10 14:19:00,
2013-04-10 07:52:00,52.2,46.2,17.72,South,173,0.0,0.0,80,0.00,,---,0.00,VWS V14.00,2013-04-10 14:52:00,
2013-04-10 07:57:00,52.0,46.0,17.72,SSE,157,0.0,0.0,80,0.00,,---,0.04,VWS V14.00,2013-04-10 14:57:00,
2013-04-10 08:02:00,52.0,46.7,17.72,SE,132,0.0,0.0,82,0.00,,---,0.04,VWS V14.00,2013-04-10 15:02:00,
2013-04-10 08:07:00,52.0,47.0,17.72,South,169,0.0,0.0,83,0.00,,---,0.04,VWS V14.00,2013-04-10 15:07:00,
2013-04-10 08:12:00,51.8,46.8,17.72,SSE,166,0.0,0.0,83,0.00,,---,0.04,VWS V14.00,2013-04-10 15:12:00,
2013-04-10 08:17:00,51.8,46.8,17.72,SSE,165,0.0,0.0,83,0.00,,---,0.04,VWS V14.00,2013-04-10 15:17:00,
2013-04-10 08:22:00,51.8,46.8,17.72,South,172,0.0,0.0,83,0.00,,---,0.04,VWS V14.00,2013-04-10 15:22:00,
2013-04-10 08:27:00,51.8,46.8,17.72,SSE,166,0.0,0.0,83,0.08,,---,0.08,VWS V14.00,2013-04-10 15:27:00,
2013-04-10 08:32:00,51.8,47.1,17.72,SSE,168,0.0,0.0,84,0.08,,---,0.08,VWS V14.00,2013-04-10 15:32:00,
2013-04-10 08:38:00,52.0,47.3,17.72,NE,43,0.0,0.0,84,0.08,,---,0.08,VWS V14.00,2013-04-10 15:38:00,
2013-04-10 08:43:00,52.0,47.3,17.72,SW,215,0.0,0.0,84,0.08,,---,0.08,VWS V14.00,2013-04-10 15:43:00,
2013-04-10 08:48:00,51.8,47.1,17.72,NE,52,0.0,0.0,84,0.08,,---,0.08,VWS V14.00,2013-04-10 15:48:00,
2013-04-10 08:53:00,51.8,47.4,17.72,SSW,205,0.0,0.0,85,0.08,,---,0.08,VWS V14.00,2013-04-10 15:53:00,
2013-04-10 08:58:00,51.8,47.4,17.72,SSE,157,0.0,0.0,85,0.08,,---,0.08,VWS V14.00,2013-04-10 15:58:00,
2013-04-10 09:03:00,51.6,47.6,17.72,ESE,109,0.0,0.0,86,0.08,,---,0.08,VWS V14.00,2013-04-10 16:03:00,
2013-04-10 09:08:00,51.6,47.6,17.72,ESE,112,0.0,0.0,86,0.08,,---,0.08,VWS V14.00,2013-04-10 16:08:00,
2013-04-10 09:13:00,51.4,47.7,17.72,NNE,19,0.0,0.0,87,0.08,,---,0.08,VWS V14.00,2013-04-10 16:13:00,
2013-04-10 09:18:00,51.3,47.5,17.72,SSE,154,0.0,0.0,87,0.08,,---,0.12,VWS V14.00,2013-04-10 16:18:00,
2013-04-10 09:23:00,51.1,47.7,17.72,WNW,295,0.0,0.0,88,0.08,,---,0.12,VWS V14.00,2013-04-10 16:23:00,
2013-04-10 09:28:00,50.9,47.8,17.72,SE,138,0.0,0.0,89,0.08,,---,0.12,VWS V14.00,2013-04-10 16:28:00,
2013-04-10 09:33:00,51.1,48.2,17.72,South,173,0.0,0.0,90,0.08,,---,0.12,VWS V14.00,2013-04-10 16:33:00,
2013-04-10 09:38:00,50.9,48.1,17.72,WSW,241,0.0,0.0,90,0.08,,---,0.12,VWS V14.00,2013-04-10 16:38:00,
2013-04-10 09:43:00,50.9,48.1,17.72,SSE,151,0.0,0.0,90,0.08,,---,0.12,VWS V14.00,2013-04-10 16:43:00,
2013-04-10 09:48:00,50.9,48.4,17.72,SSE,160,0.0,0.0,91,0.08,,---,0.12,VWS V14.00,2013-04-10 16:48:00,
2013-04-10 09:53:00,50.9,48.4,17.72,North,357,0.0,0.0,91,0.08,,---,0.16,VWS V14.00,2013-04-10 16:53:00,
2013-04-10 09:58:00,50.9,48.4,17.72,SSW,209,0.0,0.0,91,0.04,,---,0.16,VWS V14.00,2013-04-10 16:58:00,
2013-04-10 10:03:00,50.9,48.7,17.72,SE,145,0.0,0.0,92,0.04,,---,0.16,VWS V14.00,2013-04-10 17:03:00,
2013-04-10 10:08:00,50.9,48.7,17.72,South,172,0.0,0.0,92,0.04,,---,0.16,VWS V14.00,2013-04-10 17:08:00,
2013-04-10 10:13:00,50.9,48.7,17.72,SSE,168,0.0,0.0,92,0.04,,---,0.16,VWS V14.00,2013-04-10 17:13:00,
2013-04-10 10:18:00,50.7,48.5,17.72,South,175,0.0,0.0,92,0.04,,---,0.16,VWS V14.00,2013-04-10 17:18:00,
2013-04-10 10:23:00,50.7,48.8,17.72,SSW,193,0.0,0.0,93,0.04,,---,0.16,VWS V14.00,2013-04-10 17:23:00,
2013-04-10 10:28:00,50.7,48.8,17.72,ESE,117,0.0,0.0,93,0.04,,---,0.16,VWS V14.00,2013-04-10 17:28:00,
2013-04-10 10:33:00,50.7,48.8,17.72,South,190,0.0,3.6,93,0.04,,---,0.16,VWS V14.00,2013-04-10 17:33:00,
2013-04-10 10:38:00,50.7,48.8,17.72,South,175,0.0,7.6,93,0.04,,---,0.16,VWS V14.00,2013-04-10 17:38:00,
2013-04-10 10:43:00,50.7,49.1,17.72,SE,135,0.0,5.4,94,0.04,,---,0.16,VWS V14.00,2013-04-10 17:43:00,
2013-04-10 10:48:00,50.9,49.2,17.72,SW,221,0.0,5.4,94,0.04,,---,0.16,VWS V14.00,2013-04-10 17:48:00,
2013-04-10 10:53:00,51.1,49.4,17.72,SE,126,0.0,5.4,94,0.04,,---,0.16,VWS V14.00,2013-04-10 17:53:00,
2013-04-10 10:58:00,51.4,49.8,17.72,SW,236,0.0,5.4,94,0.04,,---,0.16,VWS V14.00,2013-04-10 17:58:00,
2013-04-10 11:03:00,51.6,50.0,17.72,South,176,0.0,0.0,94,0.04,,---,0.16,VWS V14.00,2013-04-10 18:03:00,
2013-04-10 11:08:00,51.8,50.1,17.72,South,179,0.0,7.6,94,0.04,,---,0.16,VWS V14.00,2013-04-10 18:08:00,
2013-04-10 11:13:00,52.0,50.3,17.72,SSE,148,0.0,7.6,94,0.04,,---,0.16,VWS V14.00,2013-04-10 18:13:00,
2013-04-10 11:18:00,52.0,50.3,17.72,South,173,0.0,7.6,94,0.04,,---,0.16,VWS V14.00,2013-04-10 18:18:00,
2013-04-10 11:23:00,52.2,50.5,17.72,SSW,194,0.0,0.0,94,0.04,,---,0.16,VWS V14.00,2013-04-10 18:23:00,
2013-04-10 11:28:00,52.2,50.5,17.72,NNW,332,0.0,2.7,94,0.04,,---,0.16,VWS V14.00,2013-04-10 18:28:00,
2013-04-10 11:33:00,52.3,50.7,17.72,SE,129,0.0,2.7,94,0.04,,---,0.16,VWS V14.00,2013-04-10 18:33:00,
2013-04-10 11:38:00,52.7,51.3,17.72,South,171,0.0,2.7,95,0.04,,---,0.16,VWS V14.00,2013-04-10 18:38:00,
2013-04-10 11:43:00,52.5,50.8,17.72,SW,226,0.0,4.0,94,0.04,,---,0.16,VWS V14.00,2013-04-10 18:43:00,
2013-04-10 11:48:00,52.7,51.0,17.72,South,173,0.0,4.0,94,0.04,,---,0.16,VWS V14.00,2013-04-10 18:48:00,
2013-04-10 11:53:00,52.9,51.2,17.72,SE,131,0.0,5.4,94,0.04,,---,0.16,VWS V14.00,2013-04-10 18:53:00,
2013-04-10 11:59:00,52.9,51.2,17.72,ESE,103,0.0,5.4,94,0.04,,---,0.16,VWS V14.00,2013-04-10 18:59:00,
2013-04-10 12:04:00,53.1,51.4,17.72,SSW,203,0.0,0.0,94,0.00,,---,0.16,VWS V14.00,2013-04-10 19:04:00,
2013-04-10 12:09:00,53.4,51.7,17.72,SSW,201,0.0,0.0,94,0.00,,---,0.16,VWS V14.00,2013-04-10 19:09:00,
2013-04-10 12:14:00,53.8,52.1,17.72,South,191,0.0,3.6,94,0.00,,---,0.16,VWS V14.00,2013-04-10 19:14:00,
2013-04-10 12:19:00,54.1,52.5,17.72,East,92,0.0,4.9,94,0.00,,---,0.16,VWS V14.00,2013-04-10 19:19:00,
2013-04-10 12:24:00,54.9,53.2,17.72,SE,142,0.0,0.0,94,0.00,,---,0.16,VWS V14.00,2013-04-10 19:24:00,
2013-04-10 12:29:00,55.6,53.6,17.72,South,170,0.0,2.2,93,0.00,,---,0.16,VWS V14.00,2013-04-10 19:29:00,
2013-04-10 12:34:00,55.8,53.8,17.72,ESE,115,0.0,2.2,93,0.00,,---,0.16,VWS V14.00,2013-04-10 19:34:00,
2013-04-10 12:39:00,56.1,54.1,17.72,SSE,165,0.0,2.2,93,0.00,,---,0.16,VWS V14.00,2013-04-10 19:39:00,
2013-04-10 12:44:00,56.3,54.0,17.72,SE,141,2.7,2.7,92,0.00,,---,0.16,VWS V14.00,2013-04-10 19:44:00,
2013-04-10 12:49:00,56.3,54.0,17.72,South,170,0.0,4.0,92,0.00,,---,0.16,VWS V14.00,2013-04-10 19:49:00,
2013-04-10 12:54:00,56.3,54.0,17.72,SSW,202,0.0,4.0,92,0.00,,---,0.16,VWS V14.00,2013-04-10 19:54:00,
2013-04-10 12:59:00,56.3,54.0,17.72,SE,146,0.0,4.0,92,0.00,,---,0.16,VWS V14.00,2013-04-10 19:59:00,
2013-04-10 13:04:00,56.5,53.9,17.72,West,272,2.2,2.2,91,0.00,,---,0.16,VWS V14.00,2013-04-10 20:04:00,
2013-04-10 13:09:00,56.7,54.1,17.72,SSE,165,0.0,2.2,91,0.00,,---,0.16,VWS V14.00,2013-04-10 20:09:00,
2013-04-10 13:14:00,56.7,54.1,17.72,West,259,0.0,2.7,91,0.00,,---,0.16,VWS V14.00,2013-04-10 20:14:00,
2013-04-10 13:19:00,56.5,53.3,17.72,SE,137,0.0,2.7,89,0.00,,---,0.16,VWS V14.00,2013-04-10 20:19:00,
2013-04-10 13:24:00,62.6,59.9,17.72,South,190,0.0,0.0,91,0.00,,---,0.16,VWS V14.00,2013-04-10 20:24:00,
2013-04-10 13:29:00,64.9,59.0,17.72,SSW,194,0.0,5.4,81,0.00,,---,0.16,VWS V14.00,2013-04-10 20:29:00,
2013-04-10 13:34:00,63.9,58.3,17.72,NNW,348,0.0,5.4,82,0.00,,---,0.16,VWS V14.00,2013-04-10 20:34:00,
2013-04-10 13:39:00,62.2,56.3,17.72,NNE,25,0.0,5.4,81,0.00,,---,0.16,VWS V14.00,2013-04-10 20:39:00,
2013-04-10 13:44:00,60.8,54.9,17.72,NNE,18,0.0,0.0,81,0.00,,---,0.16,VWS V14.00,2013-04-10 20:44:00,
2013-04-10 13:49:00,60.1,54.2,17.72,NNE,18,0.0,0.0,81,0.00,,---,0.16,VWS V14.00,2013-04-10 20:49:00,
2013-04-10 13:54:00,59.4,53.2,17.72,WNW,299,0.0,0.0,80,0.00,,---,0.16,VWS V14.00,2013-04-10 20:54:00,
2013-04-10 13:59:00,58.6,52.8,17.72,NNE,16,0.0,2.2,81,0.00,,---,0.16,VWS V14.00,2013-04-10 20:59:00,
2013-04-10 14:04:00,58.3,52.2,17.72,NNW,337,0.0,0.0,80,0.00,,---,0.16,VWS V14.00,2013-04-10 21:04:00,
2013-04-10 14:09:00,57.9,51.8,17.72,NNW,343,0.0,0.0,80,0.00,,---,0.16,VWS V14.00,2013-04-10 21:09:00,
2013-04-10 14:14:00,57.9,52.1,17.72,NNE,24,0.0,0.0,81,0.00,,---,0.16,VWS V14.00,2013-04-10 21:14:00,
2013-04-10 14:19:00,57.9,52.1,17.72,NW,324,0.0,0.0,81,0.00,,---,0.16,VWS V14.00,2013-04-10 21:19:00,
2013-04-10 14:24:00,57.9,51.8,17.72,NW,326,0.0,0.0,80,0.00,,---,0.16,VWS V14.00,2013-04-10 21:24:00,
2013-04-10 14:29:00,58.3,52.5,17.72,ESE,110,0.0,0.0,81,0.00,,---,0.16,VWS V14.00,2013-04-10 21:29:00,
2013-04-10 14:34:00,58.8,53.0,17.72,ESE,110,0.0,0.0,81,0.00,,---,0.16,VWS V14.00,2013-04-10 21:34:00,
2013-04-10 14:39:00,58.8,52.7,17.72,ESE,110,0.0,0.0,80,0.00,,---,0.16,VWS V14.00,2013-04-10 21:39:00,
2013-04-10 14:44:00,58.6,52.5,17.72,NNW,329,0.0,0.0,80,0.00,,---,0.16,VWS V14.00,2013-04-10 21:44:00,
2013-04-10 14:49:00,58.3,51.8,17.72,NNW,334,0.0,0.0,79,0.00,,---,0.16,VWS V14.00,2013-04-10 21:49:00,
2013-04-10 14:54:00,57.9,50.4,17.72,ESE,115,0.0,0.0,76,0.00,,---,0.16,VWS V14.00,2013-04-10 21:54:00,
2013-04-10 14:59:00,57.2,47.5,17.72,East,86,0.0,0.0,70,0.00,,---,0.16,VWS V14.00,2013-04-10 21:59:00,
2013-04-10 15:05:00,56.3,47.0,17.72,East,98,0.0,0.0,71,0.00,,---,0.16,VWS V14.00,2013-04-10 22:05:00,
2013-04-10 15:10:00,55.9,47.1,17.72,ESE,113,0.0,0.0,72,0.00,,---,0.16,VWS V14.00,2013-04-10 22:10:00,
2013-04-10 15:15:00,55.2,46.7,17.72,ENE,65,0.0,0.0,73,0.00,,---,0.16,VWS V14.00,2013-04-10 22:15:00,
2013-04-10 15:20:00,55.0,46.9,17.72,SE,138,0.0,0.0,74,0.00,,---,0.16,VWS V14.00,2013-04-10 22:20:00,
2013-04-10 15:25:00,54.9,46.7,17.72,East,89,0.0,0.0,74,0.00,,---,0.16,VWS V14.00,2013-04-10 22:25:00,
2013-04-10 15:30:00,54.9,46.7,17.72,East,89,0.0,2.7,74,0.00,,---,0.16,VWS V14.00,2013-04-10 22:30:00,
2013-04-10 15:35:00,54.9,46.4,17.72,East,96,0.0,2.7,73,0.00,,---,0.16,VWS V14.00,2013-04-10 22:35:00,
2013-04-10 15:40:00,54.7,45.8,17.72,East,79,0.0,2.7,72,0.00,,---,0.16,VWS V14.00,2013-04-10 22:40:00,
2013-04-10 15:45:00,54.5,45.7,17.72,ESE,114,3.1,3.1,72,0.00,,---,0.16,VWS V14.00,2013-04-10 22:45:00,
2013-04-10 15:50:00,54.3,45.5,17.72,East,80,0.0,3.1,72,0.00,,---,0.16,VWS V14.00,2013-04-10 22:50:00,
2013-04-10 15:55:00,54.1,45.3,17.72,East,97,0.0,3.1,72,0.00,,---,0.16,VWS V14.00,2013-04-10 22:55:00,
2013-04-10 16:00:00,54.3,45.5,17.72,ENE,75,0.0,3.1,72,0.00,,---,0.16,VWS V14.00,2013-04-10 23:00:00,
2013-04-10 16:05:00,54.3,45.5,17.72,ENE,62,0.0,0.0,72,0.00,,---,0.16,VWS V14.00,2013-04-10 23:05:00,
2013-04-10 16:10:00,54.0,45.2,17.72,SSE,154,0.0,0.0,72,0.00,,---,0.16,VWS V14.00,2013-04-10 23:10:00,
2013-04-10 16:15:00,54.0,45.2,17.72,East,99,0.0,0.0,72,0.00,,---,0.16,VWS V14.00,2013-04-10 23:15:00,
2013-04-10 16:20:00,53.8,44.6,17.72,East,89,0.0,0.0,71,0.00,,---,0.16,VWS V14.00,2013-04-10 23:20:00,